Time;durP1;ratioP1;P1;durP2;ratioP2;P2;SDS_P1;SDS_P2;PMS_P1;PMS_P2;Temp;Humidity;BMP_temperature;BMP_pressure;BME280_temperature;BME280_humidity;BME280_pressure;Samples;Min_cycle;Max_cycle;Signal;HPM_P1;HPM_P2
2022/12/25 00:02:29;;;;;;;29.58;12.40;;;;;;;4.94;100.00;101326.84;5067801;28;20048;-48
2022/12/25 00:04:57;;;;;;;33.55;12.00;;;;;;;5.03;100.00;101326.50;5069310;28;20421;-52
2022/12/25 00:07:27;;;;;;;31.65;11.15;;;;;;;5.08;100.00;101322.00;5072823;28;20048;-51
2022/12/25 00:09:55;;;;;;;34.33;10.00;;;;;;;5.15;100.00;101322.63;5072913;28;20495;-50
2022/12/25 00:12:23;;;;;;;31.20;10.68;;;;;;;5.18;100.00;101312.94;5072768;28;20048;-50
2022/12/25 00:14:51;;;;;;;35.63;10.57;;;;;;;5.29;100.00;101307.34;5072770;28;20040;-49
2022/12/25 00:17:19;;;;;;;32.00;9.70;;;;;;;5.32;100.00;101306.41;5073035;28;20479;-49
2022/12/25 00:19:47;;;;;;;30.02;9.52;;;;;;;5.41;100.00;101311.25;5071784;28;20441;-51
2022/12/25 00:22:16;;;;;;;26.88;9.13;;;;;;;5.48;100.00;101307.56;5072737;28;20365;-52
2022/12/25 00:24:47;;;;;;;27.13;8.15;;;;;;;5.50;100.00;101307.50;5072252;28;20044;-50
2022/12/25 00:27:15;;;;;;;28.45;7.53;;;;;;;5.58;100.00;101293.25;5068014;28;20052;-50
2022/12/25 00:29:43;;;;;;;27.40;7.10;;;;;;;5.77;100.00;101303.00;5070061;28;20049;-49
2022/12/25 00:32:11;;;;;;;30.30;8.13;;;;;;;5.82;100.00;101293.25;5072519;28;20507;-51
2022/12/25 00:34:40;;;;;;;23.20;6.70;;;;;;;5.86;100.00;101292.22;5072400;28;20557;-51
2022/12/25 00:37:08;;;;;;;29.70;7.82;;;;;;;5.94;100.00;101299.75;5072610;28;20044;-50
2022/12/25 00:39:36;;;;;;;29.88;7.93;;;;;;;6.06;100.00;101312.34;5071658;28;20514;-49
2022/12/25 00:42:18;;;;;;;27.23;8.38;;;;;;;6.16;100.00;101286.75;5069025;28;20052;-47
2022/12/25 00:44:47;;;;;;;28.08;7.88;;;;;;;6.21;100.00;101281.34;5071020;28;20045;-51
2022/12/25 00:47:16;;;;;;;27.05;8.15;;;;;;;6.23;100.00;101285.59;5072552;28;20044;-50
2022/12/25 00:49:45;;;;;;;26.58;7.82;;;;;;;6.30;100.00;101288.81;5071987;28;20098;-50
2022/12/25 00:52:15;;;;;;;32.03;7.25;;;;;;;6.36;100.00;101288.53;5068930;28;20471;-50
2022/12/25 00:54:43;;;;;;;24.08;7.07;;;;;;;6.40;100.00;101290.13;5069383;28;20506;-53
2022/12/25 00:57:13;;;;;;;24.52;6.65;;;;;;;6.45;100.00;101297.78;5072426;28;20056;-52
2022/12/25 00:59:41;;;;;;;26.65;7.38;;;;;;;6.50;100.00;101295.81;5070283;28;20045;-49
2022/12/25 01:02:24;;;;;;;32.55;8.25;;;;;;;6.58;100.00;101293.75;5067518;28;20147;-48
2022/12/25 01:04:54;;;;;;;25.15;7.60;;;;;;;6.73;100.00;101286.19;5072582;28;20052;-48
2022/12/25 01:07:24;;;;;;;28.33;7.28;;;;;;;6.77;100.00;101288.59;5072134;28;20543;-49
2022/12/25 01:12:42;;;;;;;23.20;7.72;;;;;;;6.80;100.00;101287.63;5068390;28;20559;-51
2022/12/25 01:15:13;;;;;;;24.25;7.32;;;;;;;6.81;100.00;101297.16;5067556;28;20127;-49
2022/12/25 01:17:42;;;;;;;20.45;6.90;;;;;;;6.84;100.00;101291.81;5071005;28;20076;-49
2022/12/25 01:20:11;;;;;;;24.67;7.30;;;;;;;6.87;100.00;101290.81;5072199;28;20075;-52
2022/12/25 01:22:39;;;;;;;24.33;7.43;;;;;;;6.90;100.00;101288.94;5068176;28;20063;-51
2022/12/25 01:25:09;;;;;;;23.77;7.18;;;;;;;6.97;100.00;101297.38;5068259;28;20051;-52
2022/12/25 01:27:38;;;;;;;26.70;7.75;;;;;;;7.02;100.00;101300.66;5071337;28;20079;-51
2022/12/25 01:30:08;;;;;;;25.48;8.13;;;;;;;7.08;100.00;101307.38;5071657;28;20377;-51
2022/12/25 01:32:36;;;;;;;24.17;7.95;;;;;;;7.13;100.00;101313.28;5071619;28;20036;-49
2022/12/25 01:35:05;;;;;;;23.48;8.25;;;;;;;7.12;100.00;101308.94;5069978;28;20485;-51
2022/12/25 01:37:33;;;;;;;23.45;9.00;;;;;;;7.14;100.00;101308.88;5071630;28;20077;-50
2022/12/25 01:40:01;;;;;;;25.23;6.95;;;;;;;7.16;100.00;101294.81;5071412;28;20118;-56
2022/12/25 01:42:29;;;;;;;29.92;8.05;;;;;;;7.21;100.00;101302.44;5071350;28;20048;-54
2022/12/25 01:45:31;;;;;;;22.92;8.05;;;;;;;7.25;100.00;101304.88;5070823;28;20052;-55
2022/12/25 01:48:02;;;;;;;23.80;7.63;;;;;;;7.25;100.00;101307.50;5071920;28;20118;-55
2022/12/25 01:50:31;;;;;;;25.80;7.88;;;;;;;7.28;100.00;101304.75;5071786;28;20491;-54
2022/12/25 01:52:59;;;;;;;19.98;8.00;;;;;;;7.32;100.00;101302.84;5070816;28;20052;-53
2022/12/25 01:55:28;;;;;;;25.05;8.45;;;;;;;7.34;100.00;101300.16;5068578;28;20052;-55
2022/12/25 01:57:56;;;;;;;27.98;8.45;;;;;;;7.38;100.00;101293.88;5068744;28;20044;-55
2022/12/25 02:00:24;;;;;;;24.73;8.50;;;;;;;7.37;100.00;101297.41;5071090;28;20067;-53
2022/12/25 02:02:54;;;;;;;22.35;8.65;;;;;;;7.42;100.00;101305.91;5074230;28;20040;-55
2022/12/25 02:05:26;;;;;;;20.42;7.80;;;;;;;7.41;100.00;101309.44;5074161;28;20049;-53
2022/12/25 02:07:56;;;;;;;19.35;7.53;;;;;;;7.41;100.00;101305.03;5072685;28;20067;-50
2022/12/25 02:10:24;;;;;;;20.30;7.95;;;;;;;7.44;100.00;101314.53;5072306;28;20071;-56
2022/12/25 02:12:53;;;;;;;22.60;7.60;;;;;;;7.43;100.00;101308.44;5074295;28;20044;-55
2022/12/25 02:15:27;;;;;;;18.98;7.70;;;;;;;7.42;100.00;101311.13;5074917;28;20037;-49
2022/12/25 02:18:01;;;;;;;23.48;7.55;;;;;;;7.45;100.00;101321.47;5075224;28;20106;-55
2022/12/25 02:21:05;;;;;;;19.80;6.95;;;;;;;7.51;100.00;101315.09;5074962;28;20082;-55
2022/12/25 02:23:57;;;;;;;21.27;7.82;;;;;;;7.48;100.00;101318.69;5074791;28;20499;-56
2022/12/25 02:26:48;;;;;;;25.33;8.50;;;;;;;7.47;100.00;101311.75;5072007;28;20392;-56
2022/12/25 02:29:25;;;;;;;25.63;8.85;;;;;;;7.51;100.00;101317.72;5073545;28;20048;-50
2022/12/25 02:31:59;;;;;;;21.70;7.65;;;;;;;7.51;100.00;101309.88;5075077;28;20078;-51
2022/12/25 02:34:35;;;;;;;25.00;8.25;;;;;;;7.51;100.00;101302.88;5074092;28;20434;-52
2022/12/25 02:37:08;;;;;;;26.25;8.57;;;;;;;7.56;100.00;101302.66;5071527;28;20041;-56
2022/12/25 02:39:56;;;;;;;25.88;8.25;;;;;;;7.56;100.00;101308.72;5073247;28;20056;-56
2022/12/25 03:08:03;;;;;;;20.63;8.80;;;;;;;7.59;100.00;101276.34;5072382;28;20074;-55
2022/12/25 03:13:22;;;;;;;18.50;8.00;;;;;;;7.62;100.00;101276.19;5073550;28;20080;-48
2022/12/25 03:18:37;;;;;;;17.88;7.60;;;;;;;7.56;100.00;101264.25;5068953;28;20403;-50
2022/12/25 03:26:57;;;;;;;14.65;6.85;;;;;;;7.56;100.00;101245.06;5073398;28;20529;-48
2022/12/25 03:32:24;;;;;;;19.83;6.78;;;;;;;7.56;100.00;101226.75;5073613;28;20048;-55
2022/12/25 04:36:35;;;;;;;13.73;6.45;;;;;;;7.18;100.00;101253.72;5051488;28;20079;-56
2022/12/25 04:39:03;;;;;;;18.67;6.43;;;;;;;7.21;100.00;101257.97;5072409;28;20090;-56
2022/12/25 04:41:33;;;;;;;15.00;7.32;;;;;;;7.22;100.00;101260.53;5072194;28;20072;-51
2022/12/25 04:44:01;;;;;;;18.85;7.85;;;;;;;7.21;100.00;101260.59;5070838;28;20417;-56
2022/12/25 04:46:30;;;;;;;12.40;6.65;;;;;;;7.19;100.00;101257.22;5066918;28;20047;-50
2022/12/25 04:48:58;;;;;;;15.85;7.47;;;;;;;7.18;100.00;101251.13;5070062;28;20059;-52
2022/12/25 04:51:26;;;;;;;12.25;7.28;;;;;;;7.20;100.00;101244.06;5072321;28;20055;-51
2022/12/25 04:53:55;;;;;;;15.90;6.85;;;;;;;7.22;100.00;101250.06;5068288;28;20037;-50
2022/12/25 04:56:23;;;;;;;17.42;6.93;;;;;;;7.23;100.00;101248.31;5069455;28;20044;-51
2022/12/25 04:58:52;;;;;;;18.60;7.25;;;;;;;7.22;100.00;101239.59;5072400;28;20702;-49
2022/12/25 05:01:20;;;;;;;12.65;6.38;;;;;;;7.19;100.00;101239.75;5072277;28;20056;-49
2022/12/25 05:03:49;;;;;;;15.95;7.43;;;;;;;7.21;100.00;101229.19;5069367;28;20044;-54
2022/12/25 05:06:17;;;;;;;14.80;7.50;;;;;;;7.20;100.00;101230.13;5069040;28;20051;-52
2022/12/25 05:08:45;;;;;;;17.20;7.13;;;;;;;7.20;100.00;101224.88;5072254;28;20052;-51
2022/12/25 05:11:15;;;;;;;17.90;7.35;;;;;;;7.15;100.00;101225.09;5072395;28;20411;-50
2022/12/25 05:13:43;;;;;;;17.85;7.53;;;;;;;7.19;100.00;101226.66;5069919;28;20491;-52
2022/12/25 05:16:15;;;;;;;19.85;7.72;;;;;;;7.15;100.00;101235.56;5067024;28;20041;-52
2022/12/25 05:18:44;;;;;;;14.35;7.72;;;;;;;7.12;100.00;101230.47;5071390;28;20076;-52
2022/12/25 05:21:13;;;;;;;16.27;8.52;;;;;;;7.06;100.00;101234.22;5071746;28;20745;-50
2022/12/25 05:23:47;;;;;;;15.82;8.35;;;;;;;7.08;100.00;101226.31;5071454;28;20484;-50
2022/12/25 05:26:17;;;;;;;21.17;9.32;;;;;;;7.04;100.00;101220.34;5104019;28;20439;-49
2022/12/25 05:28:46;;;;;;;18.83;9.55;;;;;;;7.07;100.00;101216.75;5071837;28;20052;-51
2022/12/25 05:31:16;;;;;;;15.57;8.43;;;;;;;7.07;100.00;101209.75;5072042;28;20079;-51
2022/12/25 05:33:44;;;;;;;15.80;8.27;;;;;;;6.99;100.00;101214.47;5071994;28;20059;-52
2022/12/25 05:36:13;;;;;;;14.48;7.72;;;;;;;7.04;100.00;101216.88;5071831;28;20049;-49
2022/12/25 05:38:41;;;;;;;17.08;7.20;;;;;;;6.99;100.00;101208.38;5073418;28;20748;-52
2022/12/25 05:41:09;;;;;;;16.08;7.00;;;;;;;6.97;100.00;101203.22;5072111;28;20083;-51
2022/12/25 05:43:37;;;;;;;16.95;6.80;;;;;;;6.99;100.00;101195.31;5074657;28;20494;-50
2022/12/25 05:46:10;;;;;;;14.52;6.15;;;;;;;6.91;100.00;101196.50;5075631;28;20052;-50
2022/12/25 05:48:39;;;;;;;12.20;6.40;;;;;;;6.89;100.00;101195.72;5075712;28;20048;-50
2022/12/25 05:51:11;;;;;;;12.63;5.55;;;;;;;6.84;100.00;101195.06;5073839;28;20120;-48
2022/12/25 05:53:40;;;;;;;14.93;6.28;;;;;;;6.76;100.00;101198.03;5071830;28;20044;-52
2022/12/25 05:56:09;;;;;;;15.32;5.88;;;;;;;6.72;100.00;101200.81;5073557;28;20053;-48
2022/12/25 05:58:39;;;;;;;11.07;6.00;;;;;;;6.69;100.00;101185.28;5075247;28;20717;-48
2022/12/25 06:01:12;;;;;;;15.02;6.18;;;;;;;6.66;100.00;101181.03;5075352;28;20071;-48
2022/12/25 06:03:42;;;;;;;12.40;6.15;;;;;;;6.64;100.00;101179.41;5073173;28;20132;-48
2022/12/25 06:06:11;;;;;;;14.90;6.45;;;;;;;6.58;100.00;101181.34;5072165;28;20052;-50
2022/12/25 06:08:40;;;;;;;13.65;5.88;;;;;;;6.57;100.00;101181.44;5074221;28;20044;-52
2022/12/25 06:11:09;;;;;;;13.48;5.85;;;;;;;6.61;100.00;101188.22;5071773;28;20044;-52
2022/12/25 06:13:38;;;;;;;11.45;5.88;;;;;;;6.62;100.00;101189.94;5072571;28;20048;-51
2022/12/25 06:16:07;;;;;;;12.18;5.32;;;;;;;6.56;100.00;101195.44;5075430;28;20049;-52
2022/12/25 06:18:36;;;;;;;16.90;6.57;;;;;;;6.51;100.00;101174.69;5072756;28;20102;-53
2022/12/25 06:21:08;;;;;;;15.13;6.30;;;;;;;6.55;100.00;101178.88;5070974;28;20503;-52
2022/12/25 06:23:37;;;;;;;15.52;6.25;;;;;;;6.52;100.00;101178.19;5073733;28;20048;-48
2022/12/25 06:26:06;;;;;;;16.77;6.82;;;;;;;6.52;100.00;101168.56;5069831;28;20052;-52
2022/12/25 06:28:35;;;;;;;16.83;6.57;;;;;;;6.53;100.00;101157.22;5072879;28;20439;-49
2022/12/25 06:31:06;;;;;;;15.20;5.85;;;;;;;6.57;100.00;101150.94;5074317;28;20059;-48
2022/12/25 06:33:35;;;;;;;21.45;7.15;;;;;;;6.63;100.00;101160.28;5074424;28;20064;-48
2022/12/25 06:36:11;;;;;;;19.48;7.20;;;;;;;6.52;100.00;101168.56;5074988;28;20114;-48
2022/12/25 06:38:39;;;;;;;15.98;7.57;;;;;;;6.51;100.00;101160.81;5074389;28;20076;-51
2022/12/25 06:41:09;;;;;;;15.35;6.85;;;;;;;6.49;100.00;101171.31;5074191;28;20106;-49
2022/12/25 06:43:38;;;;;;;17.10;7.65;;;;;;;6.51;100.00;101164.25;5074530;28;20110;-50
2022/12/25 06:46:08;;;;;;;19.38;7.97;;;;;;;6.54;100.00;101151.03;5074358;28;20098;-50
2022/12/25 06:48:38;;;;;;;18.55;7.63;;;;;;;6.70;100.00;101142.56;5072594;28;20094;-50
2022/12/25 06:51:08;;;;;;;16.50;7.55;;;;;;;6.64;100.00;101137.59;5074314;28;20372;-50
2022/12/25 06:53:36;;;;;;;15.68;7.75;;;;;;;6.74;100.00;101141.50;5074319;28;20045;-50
2022/12/25 06:56:09;;;;;;;17.52;8.10;;;;;;;6.75;100.00;101140.59;5074261;28;20053;-51
2022/12/25 06:58:38;;;;;;;19.40;8.32;;;;;;;6.75;100.00;101132.75;5074171;28;20549;-53
2022/12/25 07:01:14;;;;;;;32.75;9.63;;;;;;;6.81;100.00;101121.16;5074300;28;20048;-51
2022/12/25 07:03:44;;;;;;;21.00;9.23;;;;;;;6.81;100.00;101116.78;5073954;28;20426;-51
2022/12/25 07:06:14;;;;;;;23.30;9.77;;;;;;;6.86;100.00;101124.44;5074125;28;20044;-51
2022/12/25 07:08:43;;;;;;;18.65;9.57;;;;;;;6.87;100.00;101116.50;5073972;28;20052;-52
2022/12/25 07:11:11;;;;;;;17.60;8.57;;;;;;;6.89;100.00;101105.97;5073843;28;20059;-51
2022/12/25 07:13:39;;;;;;;18.67;8.68;;;;;;;6.90;100.00;101105.91;5073257;28;20055;-49
2022/12/25 07:16:08;;;;;;;16.52;7.47;;;;;;;6.98;100.00;101104.69;5069774;28;20037;-49
2022/12/25 07:18:36;;;;;;;17.45;7.28;;;;;;;7.05;100.00;101100.91;5070388;28;20059;-49
2022/12/25 07:21:09;;;;;;;20.50;8.27;;;;;;;7.11;100.00;101098.81;5073729;28;20044;-47
2022/12/25 07:23:39;;;;;;;18.52;7.75;;;;;;;7.07;100.00;101105.13;5070761;28;20056;-48
2022/12/25 07:26:09;;;;;;;14.15;6.70;;;;;;;7.14;100.00;101117.94;5070630;28;20503;-48
2022/12/25 07:28:37;;;;;;;16.88;6.82;;;;;;;7.17;100.00;101123.88;5073250;28;20048;-48
2022/12/25 07:31:07;;;;;;;15.98;5.97;;;;;;;7.16;100.00;101124.78;5073428;28;20572;-51
2022/12/25 07:33:36;;;;;;;18.52;5.88;;;;;;;7.21;100.00;101130.66;5073389;28;20076;-50
2022/12/25 07:36:05;;;;;;;14.30;5.85;;;;;;;7.20;100.00;101138.56;5073081;28;20049;-51
2022/12/25 07:38:33;;;;;;;14.30;6.00;;;;;;;7.19;100.00;101145.56;5069611;28;20052;-50
2022/12/25 07:41:03;;;;;;;16.60;6.15;;;;;;;7.20;100.00;101149.88;5068664;28;20060;-53
2022/12/25 07:43:32;;;;;;;12.50;5.53;;;;;;;7.19;100.00;101140.34;5072675;28;20045;-50
2022/12/25 07:46:00;;;;;;;12.25;5.90;;;;;;;7.19;100.00;101127.25;5072917;28;20040;-52
2022/12/25 07:48:29;;;;;;;14.82;6.18;;;;;;;7.22;100.00;101136.72;5072736;28;20094;-51
2022/12/25 07:50:58;;;;;;;12.20;5.10;;;;;;;7.26;100.00;101143.50;5073423;28;20533;-50
2022/12/25 07:53:27;;;;;;;15.85;5.57;;;;;;;7.24;100.00;101164.53;5072812;28;20079;-49
2022/12/25 07:55:59;;;;;;;14.73;5.22;;;;;;;7.26;100.00;101143.50;5071373;28;20087;-48
2022/12/25 07:58:30;;;;;;;14.35;5.18;;;;;;;7.30;100.00;101139.00;5069482;28;20072;-48
2022/12/25 08:01:03;;;;;;;13.48;5.22;;;;;;;7.35;100.00;101135.25;5071522;28;20072;-49
2022/12/25 08:03:31;;;;;;;12.93;5.05;;;;;;;7.33;100.00;101134.44;5073038;28;20091;-53
2022/12/25 08:06:01;;;;;;;13.70;5.88;;;;;;;7.40;100.00;101135.00;5071322;28;20193;-52
2022/12/25 08:08:29;;;;;;;10.48;5.38;;;;;;;7.35;100.00;101134.38;5072574;28;20048;-51
2022/12/25 08:10:58;;;;;;;12.20;4.75;;;;;;;7.39;100.00;101143.78;5072619;28;20048;-49
2022/12/25 08:13:26;;;;;;;13.75;5.03;;;;;;;7.38;100.00;101147.34;5070148;28;20451;-51
2022/12/25 08:15:59;;;;;;;16.30;5.22;;;;;;;7.41;100.00;101144.56;5069110;28;20555;-49
2022/12/25 08:18:28;;;;;;;12.05;4.60;;;;;;;7.46;100.00;101153.06;5071399;28;20487;-48
2022/12/25 08:21:01;;;;;;;14.00;5.35;;;;;;;7.51;100.00;101158.94;5067864;28;20098;-50
2022/12/25 08:23:29;;;;;;;11.57;5.07;;;;;;;7.48;100.00;101163.44;5071363;28;20527;-51
2022/12/25 08:25:59;;;;;;;11.68;4.55;;;;;;;7.47;100.00;101164.38;5068742;28;20044;-50
2022/12/25 08:28:36;;;;;;;13.32;4.75;;;;;;;7.51;100.00;101163.28;5069466;28;20064;-52
2022/12/25 08:31:11;;;;;;;9.15;4.38;;;;;;;7.52;100.00;101159.75;5070309;28;20055;-53
2022/12/25 08:33:39;;;;;;;10.32;4.60;;;;;;;7.49;100.00;101160.75;5069182;28;20044;-48
2022/12/25 08:36:09;;;;;;;13.82;5.20;;;;;;;7.50;100.00;101157.22;5071665;28;20040;-53
2022/12/25 08:38:38;;;;;;;11.98;4.80;;;;;;;7.49;100.00;101155.53;5072362;28;20563;-51
2022/12/25 08:41:07;;;;;;;14.95;5.38;;;;;;;7.49;100.00;101150.28;5068830;28;20056;-49
2022/12/25 08:43:35;;;;;;;12.45;5.85;;;;;;;7.54;100.00;101142.22;5069563;28;20617;-48
2022/12/25 08:46:04;;;;;;;13.65;6.00;;;;;;;7.55;100.00;101131.69;5072472;28;20548;-47
2022/12/25 08:48:35;;;;;;;10.35;4.75;;;;;;;7.55;100.00;101134.31;5072380;28;20048;-49
2022/12/25 08:51:04;;;;;;;11.32;4.70;;;;;;;7.60;100.00;101129.69;5072299;28;20045;-50
2022/12/25 08:53:32;;;;;;;11.68;4.80;;;;;;;7.60;100.00;101129.69;5072312;28;20503;-50
2022/12/25 08:56:03;;;;;;;9.52;4.45;;;;;;;7.59;100.00;101128.00;5072417;28;20083;-50
2022/12/25 08:58:31;;;;;;;11.07;4.90;;;;;;;7.60;100.00;101129.69;5072246;28;20041;-52
2022/12/25 09:01:00;;;;;;;10.73;4.90;;;;;;;7.65;100.00;101126.84;5068502;28;20580;-51
2022/12/25 09:03:30;;;;;;;12.95;4.53;;;;;;;7.76;100.00;101131.56;5067941;28;20123;-52
2022/12/25 09:06:05;;;;;;;12.65;4.82;;;;;;;7.74;100.00;101136.88;5071919;28;20120;-53
2022/12/25 09:08:33;;;;;;;9.65;4.80;;;;;;;7.74;100.00;101154.34;5072185;28;20128;-52
2022/12/25 09:11:02;;;;;;;9.07;4.30;;;;;;;7.80;100.00;101140.97;5073355;28;20503;-52
2022/12/25 09:13:30;;;;;;;10.35;4.88;;;;;;;7.74;100.00;101144.75;5075663;28;20048;-51
2022/12/25 09:15:59;;;;;;;13.55;4.38;;;;;;;7.75;100.00;101128.09;5075763;28;20086;-51
2022/12/25 09:18:30;;;;;;;10.43;4.63;;;;;;;7.75;100.00;101135.09;5075598;28;20037;-52
2022/12/25 09:20:59;;;;;;;9.88;4.65;;;;;;;7.75;100.00;101140.34;5076239;28;20127;-52
2022/12/25 09:23:29;;;;;;;10.38;4.63;;;;;;;7.73;100.00;101148.28;5076370;28;20498;-51
2022/12/25 09:25:59;;;;;;;12.07;4.75;;;;;;;7.74;100.00;101143.88;5076005;28;20041;-51
2022/12/25 09:28:27;;;;;;;10.18;4.60;;;;;;;7.74;100.00;101129.03;5074095;28;20075;-57
2022/12/25 09:30:55;;;;;;;10.40;4.97;;;;;;;7.77;100.00;101131.50;5073411;28;20052;-57
2022/12/25 09:33:24;;;;;;;11.57;4.70;;;;;;;7.77;100.00;101128.00;5076142;28;20049;-57
2022/12/25 09:35:56;;;;;;;17.33;5.32;;;;;;;7.81;100.00;101126.94;5076300;28;20036;-57
2022/12/25 09:38:25;;;;;;;10.20;4.35;;;;;;;7.82;100.00;101144.34;5076275;28;20036;-57
2022/12/25 09:41:01;;;;;;;11.38;5.18;;;;;;;7.80;100.00;101146.22;5073674;28;20080;-57
2022/12/25 09:43:33;;;;;;;11.70;5.00;;;;;;;7.82;100.00;101146.13;5073268;28;20044;-57
2022/12/25 09:46:04;;;;;;;11.02;4.75;;;;;;;7.82;100.00;101146.13;5075785;28;20147;-56
2022/12/25 09:48:35;;;;;;;10.65;4.82;;;;;;;7.81;100.00;101158.34;5075902;28;20525;-56
2022/12/25 09:51:10;;;;;;;11.30;5.18;;;;;;;7.83;100.00;101163.53;5075153;28;20037;-57
2022/12/25 09:53:40;;;;;;;12.55;4.88;;;;;;;7.82;100.00;101156.59;5075815;28;20464;-56
2022/12/25 09:56:13;;;;;;;12.75;5.30;;;;;;;7.82;100.00;101141.72;5075871;28;20044;-55
2022/12/25 09:58:42;;;;;;;11.05;5.05;;;;;;;7.91;100.00;101129.97;5074480;28;20044;-54
2022/12/25 10:01:21;;;;;;;10.50;4.60;;;;;;;7.92;100.00;101126.41;5071050;28;20543;-54
2022/12/25 10:04:06;;;;;;;11.35;5.15;;;;;;;7.87;100.00;101104.88;5074552;28;20143;-55
2022/12/25 10:06:42;;;;;;;10.40;5.05;;;;;;;7.88;100.00;101103.91;5075344;28;20056;-55
2022/12/25 10:09:29;;;;;;;9.02;4.97;;;;;;;7.90;100.00;101112.56;5075231;28;20033;-58
2022/12/25 10:12:22;;;;;;;10.40;5.20;;;;;;;7.89;100.00;101105.63;5075213;28;20101;-55
2022/12/25 10:15:04;;;;;;;12.52;5.25;;;;;;;7.91;100.00;101109.03;5075187;28;20187;-56
2022/12/25 10:17:44;;;;;;;9.68;5.32;;;;;;;7.92;100.00;101111.56;5074458;28;20041;-56
2022/12/25 10:20:21;;;;;;;11.73;5.70;;;;;;;7.94;100.00;101104.47;5072302;28;20049;-56
2022/12/25 10:22:53;;;;;;;12.63;5.82;;;;;;;7.98;100.00;101112.19;5073394;28;20044;-56
2022/12/25 10:25:24;;;;;;;10.25;5.15;;;;;;;8.01;100.00;101109.41;5075004;28;20491;-56
2022/12/25 10:27:59;;;;;;;10.50;5.13;;;;;;;8.05;100.00;101110.94;5075034;28;20483;-56
2022/12/25 10:30:29;;;;;;;11.77;5.22;;;;;;;8.06;100.00;101105.63;5072971;28;20049;-56
2022/12/25 10:32:58;;;;;;;11.77;5.18;;;;;;;8.07;100.00;101090.75;5070099;28;20048;-56
2022/12/25 10:35:30;;;;;;;13.07;5.13;;;;;;;8.06;100.00;101089.06;5073947;28;20520;-56
2022/12/25 10:38:01;;;;;;;13.00;4.88;;;;;;;8.08;100.00;101089.81;5071898;28;20091;-56
2022/12/25 10:40:37;;;;;;;9.50;4.70;;;;;;;8.09;100.00;101089.75;5072154;28;20045;-56
2022/12/25 10:43:13;;;;;;;10.57;5.07;;;;;;;8.10;100.00;101077.50;5073413;28;20071;-56
2022/12/25 10:45:46;;;;;;;13.10;4.80;;;;;;;8.10;100.00;101077.50;5071646;28;20044;-56
2022/12/25 10:48:17;;;;;;;;;;;;;;;8.13;100.00;101077.34;5074056;28;20051;-56
2022/12/25 10:50:45;;;;;;;8.95;4.35;;;;;;;8.14;100.00;101079.06;5074354;28;19935;-55
2022/12/25 10:53:20;;;;;;;9.88;5.32;;;;;;;8.15;100.00;101070.25;5074606;28;20055;-56
2022/12/25 10:55:58;;;;;;;10.80;5.28;;;;;;;8.15;100.00;101072.03;5072142;28;20110;-56
2022/12/25 10:58:29;;;;;;;9.50;5.03;;;;;;;8.17;100.00;101078.03;5070023;28;20840;-56
2022/12/25 11:01:01;;;;;;;12.00;5.15;;;;;;;8.15;100.00;101065.00;5074154;28;20063;-55
2022/12/25 11:03:32;;;;;;;9.60;4.77;;;;;;;8.17;100.00;101081.50;5073098;28;20044;-56
2022/12/25 11:06:02;;;;;;;10.13;5.30;;;;;;;8.16;100.00;101065.88;5071632;28;20472;-56
2022/12/25 11:08:33;;;;;;;10.77;5.05;;;;;;;8.17;100.00;101057.94;5071633;28;20051;-56
2022/12/25 11:11:04;;;;;;;10.05;4.78;;;;;;;8.18;100.00;101061.38;5073999;28;20068;-57
2022/12/25 11:13:37;;;;;;;12.38;5.07;;;;;;;8.19;100.00;101070.94;5074074;28;20098;-55
2022/12/25 11:16:09;;;;;;;11.38;5.03;;;;;;;8.20;100.00;101060.38;5104346;28;20052;-55
2022/12/25 11:18:45;;;;;;;12.02;5.07;;;;;;;8.19;100.00;101042.13;5069615;28;20102;-55
2022/12/25 11:21:18;;;;;;;10.80;5.00;;;;;;;8.20;100.00;101034.19;5073534;28;20523;-54
2022/12/25 11:23:49;;;;;;;12.05;5.07;;;;;;;8.22;100.00;101040.19;5073305;28;20124;-55
2022/12/25 11:26:18;;;;;;;11.48;5.35;;;;;;;8.22;100.00;101029.72;5073456;28;20047;-55
2022/12/25 11:28:51;;;;;;;12.23;5.60;;;;;;;8.27;100.00;101025.06;5073062;28;20048;-55
2022/12/25 11:31:22;;;;;;;10.23;5.35;;;;;;;8.27;100.00;101039.94;5073217;28;20556;-55
2022/12/25 11:33:54;;;;;;;12.45;6.38;;;;;;;8.25;100.00;101018.25;5073230;28;20040;-55
2022/12/25 11:36:29;;;;;;;15.50;6.28;;;;;;;8.23;100.00;101002.56;5071068;28;20052;-55
2022/12/25 11:39:01;;;;;;;13.82;6.18;;;;;;;8.20;100.00;100994.88;5071347;28;20044;-55
2022/12/25 11:41:33;;;;;;;11.45;6.03;;;;;;;8.25;100.00;100982.38;5106147;28;20122;-56
2022/12/25 11:44:08;;;;;;;12.50;5.30;;;;;;;8.29;100.00;100981.28;5073566;28;20046;-56
2022/12/25 11:46:44;;;;;;;12.20;5.70;;;;;;;8.28;100.00;100973.53;5073300;28;20079;-54
2022/12/25 11:49:18;;;;;;;11.43;5.90;;;;;;;8.28;100.00;100970.91;5072366;28;20056;-55
2022/12/25 11:51:52;;;;;;;15.23;7.38;;;;;;;8.23;100.00;100963.25;5073408;28;20123;-55
2022/12/25 11:54:26;;;;;;;13.02;7.50;;;;;;;8.25;100.00;100960.59;5073319;28;20045;-56
2022/12/25 11:56:57;;;;;;;11.38;5.90;;;;;;;8.30;100.00;100961.16;5073199;28;20079;-56
2022/12/25 11:59:32;;;;;;;11.68;5.55;;;;;;;8.29;100.00;100946.41;5073177;28;20099;-55
2022/12/25 12:02:13;;;;;;;13.63;5.30;;;;;;;8.34;100.00;100944.34;5073130;28;20439;-55
2022/12/25 12:04:47;;;;;;;12.93;5.38;;;;;;;8.35;100.00;100946.03;5072560;28;20467;-55
2022/12/25 12:07:23;;;;;;;14.93;5.70;;;;;;;8.40;100.00;100949.28;5073007;28;20083;-55
2022/12/25 12:10:02;;;;;;;12.70;5.32;;;;;;;8.35;100.00;100940.81;5071767;28;20086;-55
2022/12/25 12:12:39;;;;;;;12.60;5.35;;;;;;;8.29;100.00;100943.78;5069636;28;20052;-55
2022/12/25 12:15:26;;;;;;;11.85;5.57;;;;;;;8.32;100.00;100938.34;5071138;28;20139;-55
2022/12/25 12:17:54;;;;;;;13.07;4.88;;;;;;;8.26;100.00;100933.44;5072163;28;20105;-57
2022/12/25 12:20:31;;;;;;;11.00;5.25;;;;;;;8.26;100.00;100934.31;5069989;28;20047;-57
2022/12/25 12:23:01;;;;;;;11.98;5.45;;;;;;;8.29;100.00;100942.00;5070839;28;20584;-57
2022/12/25 12:25:30;;;;;;;11.90;5.97;;;;;;;8.38;100.00;100924.91;5072633;28;20048;-56
2022/12/25 12:28:00;;;;;;;12.50;6.88;;;;;;;8.32;100.00;100925.25;5072743;28;20147;-56
2022/12/25 12:30:35;;;;;;;13.13;6.93;;;;;;;8.38;100.00;100924.06;5071933;28;20497;-57
2022/12/25 12:33:05;;;;;;;13.82;7.25;;;;;;;8.44;100.00;100929.81;5067956;28;20530;-57
2022/12/25 12:35:39;;;;;;;14.88;8.25;;;;;;;8.48;100.00;100919.19;5069688;28;20206;-57
2022/12/25 12:38:12;;;;;;;14.60;7.35;;;;;;;8.47;100.00;100918.38;5073018;28;20045;-57
2022/12/25 12:40:43;;;;;;;13.15;8.05;;;;;;;8.46;100.00;100911.41;5072182;28;20098;-57
2022/12/25 12:43:28;;;;;;;15.00;7.85;;;;;;;8.49;100.00;100916.50;5072750;28;20499;-57
2022/12/25 12:46:04;;;;;;;15.02;8.30;;;;;;;8.51;100.00;100909.41;5072043;28;20049;-57
2022/12/25 12:48:40;;;;;;;15.77;8.05;;;;;;;8.45;100.00;100910.59;5071071;28;20052;-57
2022/12/25 12:51:10;;;;;;;13.35;8.30;;;;;;;8.41;100.00;100908.16;5071998;28;20044;-57
2022/12/25 12:53:39;;;;;;;15.50;8.73;;;;;;;8.38;100.00;100913.59;5069398;28;20045;-57
2022/12/25 12:56:13;;;;;;;15.02;8.38;;;;;;;8.44;100.00;100900.16;5070699;28;20426;-53
2022/12/25 12:58:47;;;;;;;16.50;8.25;;;;;;;8.40;100.00;100891.63;5070532;28;20052;-57
2022/12/25 13:01:45;;;;;;;14.20;7.90;;;;;;;8.48;100.00;100891.22;5067454;28;20107;-57
2022/12/25 13:04:44;;;;;;;15.20;8.63;;;;;;;8.49;100.00;100878.97;5071872;28;20415;-57
2022/12/25 13:07:30;;;;;;;15.35;8.57;;;;;;;8.49;100.00;100879.78;5071975;28;20048;-57
2022/12/25 13:10:10;;;;;;;17.80;8.68;;;;;;;8.46;100.00;100874.72;5071490;28;20139;-57
2022/12/25 13:12:38;;;;;;;16.33;8.60;;;;;;;8.53;100.00;100881.31;5068748;28;20480;-57
2022/12/25 13:15:12;;;;;;;17.80;9.13;;;;;;;8.50;100.00;100875.41;5071066;28;20099;-57
2022/12/25 13:17:46;;;;;;;15.35;8.80;;;;;;;8.48;100.00;100862.41;5072289;28;20529;-57
2022/12/25 13:20:22;;;;;;;16.98;9.48;;;;;;;8.52;100.00;100869.16;5072088;28;20048;-57
2022/12/25 13:22:50;;;;;;;15.65;8.65;;;;;;;8.53;100.00;100860.34;5070927;28;20508;-57